createdAt,value
2023-10-24T00:02:21.284Z,6.97
2023-10-24T00:04:49.216Z,2.77
2023-10-24T00:07:17.025Z,4.00
2023-10-24T00:09:44.540Z,3.87
2023-10-24T00:12:12.484Z,6.37
2023-10-24T00:14:40.427Z,3.03
2023-10-24T00:17:08.526Z,3.23
2023-10-24T00:19:36.419Z,2.63
2023-10-24T00:22:04.702Z,5.07
2023-10-24T00:24:32.372Z,4.70
2023-10-24T00:26:59.897Z,3.80
2023-10-24T00:29:28.618Z,4.07
2023-10-24T00:31:56.396Z,4.50
2023-10-24T00:34:24.652Z,9.70
2023-10-24T00:36:52.386Z,3.23
2023-10-24T00:39:20.078Z,6.80
2023-10-24T00:41:47.825Z,3.50
2023-10-24T00:44:15.688Z,4.47
2023-10-24T00:46:43.761Z,8.07
2023-10-24T00:49:11.952Z,4.87
2023-10-24T00:51:40.468Z,5.13
2023-10-24T00:54:10.298Z,2.83
2023-10-24T00:56:39.279Z,5.20
2023-10-24T00:59:06.946Z,3.87
2023-10-24T01:01:35.211Z,9.07
2023-10-24T01:04:03.962Z,3.67
2023-10-24T01:06:31.887Z,2.93
2023-10-24T01:08:59.588Z,5.73
2023-10-24T01:11:28.721Z,4.13
2023-10-24T01:13:57.371Z,3.27
2023-10-24T01:16:25.395Z,2.43
2023-10-24T01:18:53.212Z,4.30
2023-10-24T01:21:20.943Z,4.03
2023-10-24T01:23:48.616Z,3.30
2023-10-24T01:26:18.699Z,4.13
2023-10-24T01:28:46.653Z,2.57
2023-10-24T01:31:14.431Z,4.97
2023-10-24T01:33:41.995Z,5.33
2023-10-24T01:36:09.468Z,4.13
2023-10-24T01:38:37.211Z,6.80
2023-10-24T01:41:04.969Z,5.27
2023-10-24T01:43:32.425Z,3.03
2023-10-24T01:46:00.181Z,3.27
2023-10-24T01:48:27.736Z,5.53
2023-10-24T01:50:55.431Z,3.33
2023-10-24T01:53:23.022Z,4.83
2023-10-24T01:55:50.751Z,4.80
2023-10-24T01:58:18.548Z,4.93
2023-10-24T02:00:46.272Z,4.03
2023-10-24T02:03:14.153Z,2.57
2023-10-24T02:05:42.056Z,3.63
2023-10-24T02:08:09.702Z,2.30
2023-10-24T02:10:37.405Z,4.60
2023-10-24T02:13:05.168Z,2.43
2023-10-24T02:15:32.856Z,5.03
2023-10-24T02:18:00.627Z,3.70
2023-10-24T02:20:28.377Z,3.30
2023-10-24T02:22:56.061Z,3.93
2023-10-24T02:25:23.784Z,3.43
2023-10-24T02:27:53.052Z,4.43
2023-10-24T02:30:22.214Z,2.47
2023-10-24T02:32:50.537Z,4.23
2023-10-24T02:35:18.434Z,5.17
2023-10-24T02:37:46.084Z,3.90
2023-10-24T02:40:15.157Z,2.60
2023-10-24T02:42:42.840Z,3.53
2023-10-24T02:45:11.508Z,4.57
2023-10-24T02:47:39.289Z,3.67
2023-10-24T02:50:09.134Z,5.13
2023-10-24T02:52:38.460Z,5.43
2023-10-24T02:55:09.325Z,3.40
2023-10-24T02:57:37.053Z,3.40
2023-10-24T03:00:07.157Z,2.97
2023-10-24T03:02:34.914Z,5.80
2023-10-24T03:05:02.709Z,4.63
2023-10-24T03:07:30.907Z,7.33
2023-10-24T03:09:58.686Z,4.87
2023-10-24T03:12:26.496Z,5.47
2023-10-24T03:14:54.186Z,3.67
2023-10-24T03:17:22.702Z,4.87
2023-10-24T03:19:50.356Z,4.23
2023-10-24T03:22:18.228Z,4.00
2023-10-24T03:24:46.353Z,4.00
2023-10-24T03:27:14.345Z,4.83
2023-10-24T03:29:42.494Z,6.37
2023-10-24T03:32:10.233Z,3.70
2023-10-24T03:34:38.144Z,7.10
2023-10-24T03:37:06.144Z,3.30
2023-10-24T03:39:33.925Z,6.20
2023-10-24T03:42:02.646Z,4.27
2023-10-24T03:44:30.314Z,4.17
2023-10-24T03:46:58.098Z,4.20
2023-10-24T03:49:25.995Z,5.30
2023-10-24T03:51:53.827Z,4.57
2023-10-24T03:54:21.551Z,5.93
2023-10-24T03:56:49.290Z,5.07
2023-10-24T03:59:17.013Z,3.87
2023-10-24T04:01:44.867Z,2.87
2023-10-24T04:04:12.692Z,4.73
2023-10-24T04:06:40.409Z,2.77
2023-10-24T04:09:08.183Z,5.40
2023-10-24T04:11:36.069Z,6.17
2023-10-24T04:14:04.357Z,3.47
2023-10-24T04:16:32.952Z,4.07
2023-10-24T04:19:00.722Z,3.47
2023-10-24T04:21:28.425Z,4.97
2023-10-24T04:23:56.161Z,5.97
2023-10-24T04:26:23.824Z,4.87
2023-10-24T04:28:51.553Z,3.57
2023-10-24T04:31:19.288Z,3.63
2023-10-24T04:33:47.102Z,2.33
2023-10-24T04:36:15.150Z,5.27
2023-10-24T04:38:43.002Z,3.57
2023-10-24T04:41:10.665Z,4.23
2023-10-24T04:43:38.402Z,3.40
2023-10-24T04:46:06.163Z,3.77
2023-10-24T04:48:33.887Z,3.47
2023-10-24T04:51:01.562Z,3.77
2023-10-24T04:53:29.261Z,3.07
2023-10-24T04:55:56.987Z,3.70
2023-10-24T04:58:24.724Z,5.40
2023-10-24T05:00:53.422Z,4.20
2023-10-24T05:03:21.120Z,4.63
2023-10-24T05:05:48.824Z,3.10
2023-10-24T05:08:16.526Z,3.33
2023-10-24T05:10:44.248Z,6.50
2023-10-24T05:13:12.459Z,2.40
2023-10-24T05:15:40.150Z,4.47
2023-10-24T05:18:11.888Z,4.70
2023-10-24T05:20:39.955Z,3.03
2023-10-24T05:23:08.032Z,4.97
2023-10-24T05:25:35.981Z,3.97
2023-10-24T05:28:04.270Z,4.53
2023-10-24T05:30:31.979Z,2.30
2023-10-24T05:32:59.971Z,5.30
2023-10-24T05:35:28.004Z,2.87
2023-10-24T05:37:56.579Z,2.20
2023-10-24T05:40:24.283Z,2.80
2023-10-24T05:42:52.733Z,3.10
2023-10-24T05:45:22.495Z,2.43
2023-10-24T05:47:50.336Z,5.87
2023-10-24T05:50:19.457Z,3.63
2023-10-24T05:52:47.708Z,3.10
2023-10-24T05:55:15.996Z,4.23
2023-10-24T05:57:43.681Z,3.77
2023-10-24T06:00:13.631Z,3.53
2023-10-24T06:02:41.331Z,3.70
2023-10-24T06:05:10.100Z,2.77
2023-10-24T06:07:38.042Z,4.70
2023-10-24T06:10:08.413Z,2.70
2023-10-24T06:12:36.056Z,2.90
2023-10-24T06:15:06.158Z,3.57
2023-10-24T06:17:34.073Z,7.00
2023-10-24T06:20:01.899Z,2.63
2023-10-24T06:22:29.704Z,2.77
2023-10-24T06:24:58.780Z,4.20
2023-10-24T06:27:26.497Z,2.57
2023-10-24T06:29:54.132Z,4.97
2023-10-24T06:32:21.955Z,5.00
2023-10-24T06:34:49.927Z,4.83
2023-10-24T06:37:17.665Z,3.07
2023-10-24T06:39:46.433Z,3.07
2023-10-24T06:42:14.115Z,4.50
2023-10-24T06:44:41.792Z,3.40
2023-10-24T06:47:09.515Z,3.13
2023-10-24T06:49:37.248Z,3.20
2023-10-24T06:52:06.867Z,4.33
2023-10-24T06:54:34.564Z,5.00
2023-10-24T06:57:02.242Z,3.10
2023-10-24T06:59:30.171Z,2.60
2023-10-24T07:01:57.875Z,4.93
2023-10-24T07:04:25.765Z,3.10
2023-10-24T07:06:53.588Z,5.40
2023-10-24T07:09:21.231Z,3.20
2023-10-24T07:11:48.896Z,3.47
2023-10-24T07:14:16.566Z,3.20
2023-10-24T07:16:44.436Z,4.33
2023-10-24T07:19:12.405Z,3.07
2023-10-24T07:21:39.894Z,2.70
2023-10-24T07:24:08.323Z,3.43
2023-10-24T07:26:36.094Z,3.20
2023-10-24T07:29:04.474Z,3.53
2023-10-24T07:31:32.262Z,2.90
2023-10-24T07:34:01.367Z,3.30
2023-10-24T07:36:31.564Z,3.03
2023-10-24T07:39:00.750Z,3.73
2023-10-24T07:41:28.458Z,3.50
2023-10-24T07:43:57.085Z,3.83
2023-10-24T07:46:25.448Z,3.20
2023-10-24T07:48:54.191Z,3.60
2023-10-24T07:51:21.947Z,4.77
2023-10-24T07:53:49.773Z,3.47
2023-10-24T07:56:17.512Z,4.23
2023-10-24T07:58:45.217Z,4.73
2023-10-24T08:01:13.001Z,4.37
2023-10-24T08:03:40.800Z,6.27
2023-10-24T08:06:08.616Z,9.50
2023-10-24T08:08:36.336Z,37.73
2023-10-24T08:11:04.417Z,23.90
2023-10-24T08:13:32.226Z,26.93
2023-10-24T08:15:59.939Z,20.63
2023-10-24T08:18:28.069Z,24.07
2023-10-24T08:20:56.118Z,29.23
2023-10-24T08:23:23.938Z,23.67
2023-10-24T08:25:51.592Z,22.13
2023-10-24T08:28:19.236Z,22.63
2023-10-24T08:30:46.918Z,19.17
2023-10-24T08:33:15.916Z,15.97
2023-10-24T08:35:44.841Z,14.47
2023-10-24T08:38:12.605Z,12.00
2023-10-24T08:40:40.995Z,24.60
2023-10-24T08:43:08.992Z,16.13
2023-10-24T08:45:37.445Z,13.63
2023-10-24T08:48:06.994Z,14.20
2023-10-24T08:50:35.127Z,11.47
2023-10-24T08:53:03.375Z,14.93
2023-10-24T08:55:31.818Z,7.87
2023-10-24T08:58:02.015Z,10.63
2023-10-24T09:00:31.289Z,10.47
2023-10-24T09:03:01.328Z,3.87
2023-10-24T09:05:30.243Z,6.87
2023-10-24T09:07:58.107Z,9.57
2023-10-24T09:10:25.866Z,7.47
2023-10-24T09:12:54.413Z,12.10
2023-10-24T09:15:22.176Z,6.90
2023-10-24T09:17:50.234Z,5.30
2023-10-24T09:20:20.260Z,8.40
2023-10-24T09:22:47.976Z,7.33
2023-10-24T09:25:22.298Z,6.53
2023-10-24T09:27:49.766Z,7.27
2023-10-24T09:30:21.127Z,8.37
2023-10-24T09:32:48.804Z,8.43
2023-10-24T09:35:16.563Z,7.17
2023-10-24T09:37:48.672Z,6.40
2023-10-24T09:40:17.222Z,7.07
2023-10-24T09:42:47.764Z,2.60
2023-10-24T09:45:17.100Z,7.60
2023-10-24T09:47:47.681Z,5.27
2023-10-24T09:50:16.297Z,6.43
2023-10-24T09:52:45.007Z,4.83
2023-10-24T09:55:14.482Z,4.53
2023-10-24T09:57:45.078Z,5.37
2023-10-24T10:00:16.494Z,3.97
2023-10-24T10:02:46.779Z,4.03
2023-10-24T10:05:15.861Z,6.53
2023-10-24T10:07:45.703Z,5.83
2023-10-24T10:10:16.521Z,3.80
2023-10-24T10:12:45.084Z,7.17
2023-10-24T10:15:53.003Z,5.33
2023-10-24T10:18:37.550Z,7.23
2023-10-24T10:21:14.272Z,4.50
2023-10-24T10:24:00.717Z,5.60
2023-10-24T10:26:47.455Z,4.17
2023-10-24T10:29:26.269Z,5.53
2023-10-24T10:32:39.915Z,5.63
2023-10-24T10:35:48.182Z,3.53
2023-10-24T10:38:44.280Z,3.47
2023-10-24T10:41:39.905Z,2.33
2023-10-24T10:44:43.558Z,3.30
2023-10-24T10:47:16.904Z,2.90
2023-10-24T10:49:48.173Z,1.80
2023-10-24T10:52:39.270Z,1.50
2023-10-24T10:55:21.493Z,2.43
2023-10-24T10:58:21.165Z,2.07
2023-10-24T11:01:00.563Z,3.90
2023-10-24T11:03:39.202Z,3.77
2023-10-24T11:06:15.185Z,4.20
2023-10-24T11:08:43.926Z,2.57
2023-10-24T11:11:12.258Z,4.10
2023-10-24T11:13:42.526Z,2.27
2023-10-24T11:16:21.187Z,1.90
2023-10-24T11:18:59.300Z,2.20
2023-10-24T11:21:30.570Z,1.60
2023-10-24T11:24:00.890Z,1.93
2023-10-24T11:26:29.178Z,3.43
2023-10-24T11:28:56.987Z,2.17
2023-10-24T11:31:26.568Z,1.90
2023-10-24T11:33:54.758Z,2.13
2023-10-24T11:36:22.543Z,1.90
2023-10-24T11:38:51.808Z,1.60
2023-10-24T11:41:19.451Z,2.30
2023-10-24T11:43:48.609Z,2.20
2023-10-24T11:46:16.493Z,3.40
2023-10-24T11:48:45.682Z,3.63
2023-10-24T11:51:13.604Z,1.60
2023-10-24T11:53:41.466Z,1.50
2023-10-24T11:56:09.274Z,2.10
2023-10-24T11:58:37.205Z,1.50
2023-10-24T12:01:06.159Z,1.97
2023-10-24T12:03:46.679Z,1.53
2023-10-24T12:06:17.886Z,2.20
2023-10-24T12:08:45.622Z,1.40
2023-10-24T12:11:14.556Z,1.70
2023-10-24T12:13:43.567Z,1.33
2023-10-24T12:16:11.538Z,2.30
2023-10-24T12:18:40.606Z,1.50
2023-10-24T12:21:10.170Z,3.13
2023-10-24T12:23:38.301Z,1.57
2023-10-24T12:26:06.993Z,1.67
2023-10-24T12:28:36.592Z,1.63
2023-10-24T12:31:04.582Z,2.23
2023-10-24T12:33:32.439Z,2.03
2023-10-24T12:36:01.970Z,2.03
2023-10-24T12:38:30.054Z,2.60
2023-10-24T12:40:57.861Z,2.20
2023-10-24T12:43:25.781Z,1.73
2023-10-24T12:45:53.599Z,2.43
2023-10-24T12:48:21.535Z,2.03
2023-10-24T12:50:49.372Z,1.93
2023-10-24T12:53:18.344Z,2.37
2023-10-24T12:55:46.038Z,1.63
2023-10-24T12:58:13.809Z,2.77
2023-10-24T13:00:41.507Z,2.53
2023-10-24T13:03:17.302Z,2.73
2023-10-24T13:05:47.038Z,1.90
2023-10-24T13:08:14.934Z,2.20
2023-10-24T13:10:42.775Z,3.53
2023-10-24T13:13:10.321Z,3.33
2023-10-24T13:15:38.034Z,2.50
2023-10-24T13:18:06.094Z,3.93
2023-10-24T13:20:33.819Z,2.60
2023-10-24T13:23:01.871Z,2.23
2023-10-24T13:25:30.089Z,2.03
2023-10-24T13:27:58.185Z,3.33
2023-10-24T13:30:41.125Z,1.90
2023-10-24T13:33:12.978Z,2.10
2023-10-24T13:38:11.437Z,4.17
2023-10-24T13:40:39.265Z,1.73
2023-10-24T13:43:07.058Z,2.07
2023-10-24T13:45:34.877Z,3.40
2023-10-24T13:48:03.115Z,2.07
2023-10-24T13:50:30.841Z,3.43
2023-10-24T13:52:58.727Z,2.87
2023-10-24T13:55:26.800Z,3.40
2023-10-24T13:57:54.568Z,2.63
2023-10-24T14:00:22.488Z,3.37
2023-10-24T14:02:50.418Z,3.40
2023-10-24T14:05:18.563Z,3.57
2023-10-24T14:07:47.398Z,4.23
2023-10-24T14:10:15.180Z,2.40
2023-10-24T14:12:42.907Z,2.30
2023-10-24T14:15:11.747Z,2.17
2023-10-24T14:17:39.601Z,3.40
2023-10-24T14:20:09.587Z,3.27
2023-10-24T14:22:37.500Z,3.63
2023-10-24T14:25:07.197Z,2.27
2023-10-24T14:27:34.973Z,2.60
2023-10-24T14:30:03.184Z,2.57
2023-10-24T14:32:31.031Z,5.43
2023-10-24T14:34:59.006Z,3.20
2023-10-24T14:37:27.239Z,3.77
2023-10-24T14:39:54.911Z,2.00
2023-10-24T14:42:22.708Z,2.43
2023-10-24T14:44:50.423Z,2.73
2023-10-24T14:47:18.584Z,2.47
2023-10-24T14:49:46.390Z,2.20
2023-10-24T14:52:13.972Z,3.13
2023-10-24T14:54:41.686Z,2.47
2023-10-24T14:57:10.824Z,2.10
2023-10-24T14:59:38.575Z,1.97
2023-10-24T15:02:07.494Z,1.83
2023-10-24T15:04:35.339Z,1.90
2023-10-24T15:07:03.158Z,3.07
2023-10-24T15:09:31.152Z,2.00
2023-10-24T15:11:58.978Z,2.47
2023-10-24T15:14:27.970Z,2.63
2023-10-24T15:16:55.868Z,4.70
2023-10-24T15:19:23.872Z,2.07
2023-10-24T15:21:51.578Z,2.13
2023-10-24T15:24:20.206Z,2.00
2023-10-24T15:26:49.815Z,2.27
2023-10-24T15:29:17.563Z,2.40
2023-10-24T15:31:45.580Z,2.50
2023-10-24T15:34:13.652Z,1.70
2023-10-24T15:36:41.425Z,1.90
2023-10-24T15:39:09.376Z,2.30
2023-10-24T15:41:37.142Z,1.83
2023-10-24T15:44:05.901Z,1.77
2023-10-24T15:46:33.664Z,2.60
2023-10-24T15:49:01.124Z,2.20
2023-10-24T15:51:28.836Z,2.00
2023-10-24T15:53:56.645Z,2.43
2023-10-24T15:56:24.358Z,2.00
2023-10-24T15:58:52.259Z,2.50
2023-10-24T16:01:21.685Z,4.17
2023-10-24T16:03:50.194Z,1.90
2023-10-24T16:06:19.487Z,1.80
2023-10-24T16:08:49.607Z,2.80
2023-10-24T16:11:17.424Z,1.90
2023-10-24T16:13:45.967Z,2.50
2023-10-24T16:16:13.864Z,2.33
2023-10-24T16:18:42.244Z,3.67
2023-10-24T16:21:10.032Z,2.53
2023-10-24T16:23:37.785Z,2.80
2023-10-24T16:26:06.559Z,2.57
2023-10-24T16:28:38.591Z,2.53
2023-10-24T16:31:06.554Z,3.20
2023-10-24T16:33:34.336Z,4.37
2023-10-24T16:36:04.128Z,3.63
2023-10-24T16:38:31.864Z,3.80
2023-10-24T16:40:59.846Z,2.43
2023-10-24T16:43:29.952Z,2.87
2023-10-24T16:45:58.325Z,2.93
2023-10-24T16:48:27.862Z,2.93
2023-10-24T16:50:56.637Z,3.27
2023-10-24T16:53:24.718Z,3.37
2023-10-24T16:55:55.060Z,3.40
2023-10-24T16:58:22.926Z,3.60
2023-10-24T17:00:50.646Z,3.10
2023-10-24T17:03:18.461Z,3.80
2023-10-24T17:05:46.447Z,3.23
2023-10-24T17:08:14.001Z,4.23
2023-10-24T17:10:42.494Z,4.53
2023-10-24T17:13:10.797Z,4.90
2023-10-24T17:15:39.014Z,3.93
2023-10-24T17:18:07.186Z,5.67
2023-10-24T17:20:35.583Z,5.93
2023-10-24T17:23:03.888Z,5.63
2023-10-24T17:25:31.737Z,3.97
2023-10-24T17:28:00.098Z,3.43
2023-10-24T17:30:27.919Z,4.53
2023-10-24T17:32:56.890Z,3.47
2023-10-24T17:35:24.760Z,5.80
2023-10-24T17:37:54.263Z,5.23
2023-10-24T17:40:22.614Z,6.20
2023-10-24T17:42:53.102Z,5.80
2023-10-24T17:45:21.178Z,4.23
2023-10-24T17:47:49.023Z,4.23
2023-10-24T17:50:18.086Z,4.57
2023-10-24T17:52:45.718Z,4.87
2023-10-24T17:55:13.377Z,4.10
2023-10-24T17:57:41.559Z,4.57
2023-10-24T18:00:12.276Z,4.37
2023-10-24T18:02:40.360Z,4.27
2023-10-24T18:05:09.450Z,4.83
2023-10-24T18:07:38.477Z,4.03
2023-10-24T18:10:08.980Z,5.03
2023-10-24T18:12:37.049Z,5.23
2023-10-24T18:15:08.121Z,4.27
2023-10-24T18:17:40.738Z,4.27
2023-10-24T18:20:10.930Z,4.90
2023-10-24T18:22:39.242Z,4.40
2023-10-24T18:25:10.458Z,4.47
2023-10-24T18:27:38.966Z,4.37
2023-10-24T18:30:08.965Z,4.13
2023-10-24T18:32:37.002Z,6.80
2023-10-24T18:35:07.789Z,6.67
2023-10-24T18:37:36.448Z,4.90
2023-10-24T18:40:07.794Z,4.37
2023-10-24T18:42:35.762Z,4.40
2023-10-24T18:45:04.901Z,4.43
2023-10-24T18:47:33.323Z,5.53
2023-10-24T18:50:01.417Z,4.77
2023-10-24T18:52:29.400Z,5.60
2023-10-24T18:54:57.420Z,4.87
2023-10-24T18:57:26.833Z,7.60
2023-10-24T19:02:25.748Z,6.07
2023-10-24T19:04:55.244Z,5.40
2023-10-24T19:07:23.251Z,7.93
2023-10-24T19:09:51.098Z,6.00
2023-10-24T19:12:20.536Z,6.23
2023-10-24T19:14:49.457Z,7.10
2023-10-24T19:17:18.865Z,5.47
2023-10-24T19:19:48.193Z,5.90
2023-10-24T19:22:18.183Z,7.53
2023-10-24T19:24:46.917Z,7.37
2023-10-24T19:27:15.917Z,5.00
2023-10-24T19:29:44.909Z,5.47
2023-10-24T19:32:14.551Z,6.50
2023-10-24T19:34:44.263Z,6.97
2023-10-24T19:37:14.246Z,6.90
2023-10-24T19:39:43.628Z,6.20
2023-10-24T19:42:13.616Z,5.77
2023-10-24T19:44:42.762Z,5.73
2023-10-24T19:47:15.730Z,6.40
2023-10-24T19:49:46.112Z,6.73
2023-10-24T19:52:15.924Z,6.10
2023-10-24T19:54:45.193Z,5.87
2023-10-24T19:57:14.305Z,7.33
2023-10-24T19:59:43.529Z,6.53
2023-10-24T20:02:12.845Z,8.73
2023-10-24T20:04:47.313Z,8.70
2023-10-24T20:07:18.455Z,7.03
2023-10-24T20:11:06.356Z,7.17
2023-10-24T20:15:04.510Z,6.43
2023-10-24T20:17:36.266Z,6.20
2023-10-24T20:20:05.594Z,6.77
2023-10-24T20:22:35.769Z,7.00
2023-10-24T20:25:05.896Z,8.67
2023-10-24T20:27:35.253Z,7.20
2023-10-24T20:30:04.912Z,9.50
2023-10-24T20:32:33.020Z,9.93
2023-10-24T20:35:01.556Z,8.70
2023-10-24T20:37:29.631Z,8.30
2023-10-24T20:39:58.479Z,6.20
2023-10-24T20:42:26.645Z,8.23
2023-10-24T20:44:55.613Z,8.00
2023-10-24T20:47:23.851Z,7.97
2023-10-24T20:49:51.743Z,9.10
2023-10-24T20:52:19.515Z,6.67
2023-10-24T20:54:47.301Z,7.23
2023-10-24T20:57:15.835Z,7.13
2023-10-24T20:59:43.829Z,7.90
2023-10-24T21:02:11.972Z,8.23
2023-10-24T21:04:39.906Z,8.27
2023-10-24T21:07:08.591Z,7.53
2023-10-24T21:09:36.390Z,10.27
2023-10-24T21:12:05.478Z,8.23
2023-10-24T21:14:33.510Z,10.20
2023-10-24T21:17:01.311Z,7.73
2023-10-24T21:19:30.190Z,7.67
2023-10-24T21:21:57.976Z,8.63
2023-10-24T21:24:27.982Z,8.37
2023-10-24T21:26:56.190Z,8.63
2023-10-24T21:29:25.605Z,10.03
2023-10-24T21:31:56.255Z,8.10
2023-10-24T21:34:24.559Z,8.00
2023-10-24T21:36:52.491Z,8.43
2023-10-24T21:39:22.656Z,8.53
2023-10-24T21:41:51.441Z,8.80
2023-10-24T21:44:19.166Z,9.67
2023-10-24T21:46:46.995Z,9.10
2023-10-24T21:49:14.876Z,8.60
2023-10-24T21:51:42.832Z,9.50
2023-10-24T21:54:10.710Z,9.03
2023-10-24T21:56:39.787Z,8.70
2023-10-24T21:59:07.857Z,9.40
2023-10-24T22:01:35.416Z,10.10
2023-10-24T22:04:03.538Z,9.37
2023-10-24T22:06:31.465Z,9.43
2023-10-24T22:08:59.349Z,12.50
2023-10-24T22:11:27.114Z,8.87
2023-10-24T22:13:54.878Z,8.53
2023-10-24T22:16:22.839Z,9.13
2023-10-24T22:18:50.830Z,9.60
2023-10-24T22:21:19.915Z,9.40
2023-10-24T22:23:50.220Z,7.90
2023-10-24T22:26:18.192Z,8.93
2023-10-24T22:28:45.941Z,9.67
2023-10-24T22:31:14.071Z,9.07
2023-10-24T22:33:42.028Z,10.03
2023-10-24T22:36:09.911Z,7.70
2023-10-24T22:38:37.568Z,8.43
2023-10-24T22:41:05.265Z,9.03
2023-10-24T22:43:35.303Z,7.90
2023-10-24T22:46:03.272Z,8.87
2023-10-24T22:48:31.193Z,6.97
2023-10-24T22:50:58.997Z,8.27
2023-10-24T22:53:26.734Z,8.93
2023-10-24T22:55:54.490Z,7.87
2023-10-24T22:58:22.219Z,8.27
2023-10-24T23:00:50.003Z,7.07
2023-10-24T23:03:17.870Z,7.93
2023-10-24T23:05:45.676Z,7.33
2023-10-24T23:08:13.400Z,7.60
2023-10-24T23:10:41.293Z,8.10
2023-10-24T23:13:09.113Z,8.33
2023-10-24T23:15:39.607Z,7.13
2023-10-24T23:18:07.423Z,6.17
2023-10-24T23:20:35.170Z,8.53
2023-10-24T23:23:02.901Z,7.67
2023-10-24T23:25:30.573Z,7.50
2023-10-24T23:27:58.329Z,7.80
2023-10-24T23:30:27.309Z,6.20
2023-10-24T23:32:55.021Z,8.90
2023-10-24T23:35:23.152Z,5.77
2023-10-24T23:37:51.008Z,7.20
2023-10-24T23:40:19.100Z,8.70
2023-10-24T23:42:46.895Z,6.90
2023-10-24T23:45:15.558Z,5.00
2023-10-24T23:47:43.260Z,6.73
2023-10-24T23:50:11.568Z,6.17
2023-10-24T23:52:39.313Z,6.70
2023-10-24T23:55:08.604Z,6.87
2023-10-24T23:57:36.418Z,5.87
